Terminal Aerodrome Forecast
Issued by NWS

Home | Current Version | Previous Version | Text Only | Print | Product List | Glossary On
Versions: 1 2 3 4 5 6 7 8 9 10 11 12
765
FTPA31 PHFO 122329
TAFHKO
TAF
PHKO 122329Z 1300/1324 05005KT P6SM SKC
     FM130500 13009KT P6SM FEW030 SCT060
     FM131400 02013G20KT P6SM VCSH SCT030 BKN050=

USA.gov is the U.S. government's official web portal to all federal, state and local government web resources and services.